Botosani, Romania

1:57 PM EEST on July 31, 2016 (GMT +0300)
Salcea | | Change Station

Elev 1375 ft 47.69 °N, 26.35 °E | Updated 27 minutes ago

Scattered Clouds
Scattered Clouds
84 °F
Feels Like 85 °F
N
2
Wind Variable Wind from Variable

Today
High -- | Low -- °F
--% Chance of Precip.
Yesterday
High -- | Low -- °F
Precip. -- in
Pressure 30.01 in
Visibility 6.2 miles
Clouds Scattered Clouds 4700 ft
Heat Index 85 °F
Dew Point 63 °F
Humidity 48%
Rainfall 0.00 in
Snow Depth Not available.
5:49 AM 8:49 PM
Waning Crescent, 7% visible
METAR LRSV 311030Z VRB02KT 9999 SCT047TCU 29/17 Q1016
Pressure 30.01 in
Visibility 6.2 miles
Clouds Scattered Clouds 4700 ft
Heat Index 85 °F
Dew Point 63 °F
Humidity 48%
Rainfall 0.00 in
Snow Depth Not available.
5:49 AM 8:49 PM
Waning Crescent, 7% visible
METAR LRSV 311030Z VRB02KT 9999 SCT047TCU 29/17 Q1016

10-Day Weather Forecast

×

Almanac

Astronomy

Jul. 31, 2016 Rise Set
Actual Time
Civil Twilight
Nautical Twilight
Astronomical Twilight
Moon
Length of Visible Light
Length of Day
Tomorrow will be .
, % of the Moon is Illuminated

Today's Extremes

Country Highs Country Lows

Community

WunderPhotos

Upload Photos

1,928,785 photos uploaded!

WunderBlog® & News

Nearby

Air Quality

  Air Quality AQ Index Pollutant
Not available.

Snow Depth

Station Depth Elevation

Earthquake Activity

City Distance Mag. Time & Date
Minimum magnitude displayed is 2.5.

Coastal Water Temperatures

Place Temperature

Stations

Nearby Weather Stations

Station Location Temp. Windchill Dew Point Humidity Wind Precip. Elev Updated Type